Aviation Digital Data Service (ADDS)

Output produced by METARs form (1702 UTC 17 October 2017)
found at http://aviationweather.gov/adds/metars/
 
KBFD 171434Z 1715/1812 24007KT P6SM FEW045 
     FM171700 25009G17KT P6SM SKC